Mineral Faith — VRKS4 — position and weather

sailwx.info

Track history (hours):
 
Tides and Currents Weather Stations Pressure Air Temp Water Temp Dewpoint Dewpoint Depression Visibility Wind Speed Wind Dir Waves Ship Positions

Mineral Faith

Last reported at 2015-Jan-30 21:32 UTC. Time now 2015-Jan-30 21:39 UTC.
Position N 29°54' E 122°05'.

Length 292 m; draft 18.2 m.

Type: Cargo ship. MMSI: 477947500.

Date/timePositionNaut miles runAvg speedWind from/ knotsBaromVisibWave heightAir tempDewpointWater temp
2015-Jan-30 21:32N 29°54' E 122°05'0 0.0
2015-Jan-30 20:32N 29°54' E 122°05'0 0.0
2015-Jan-30 19:32N 29°54' E 122°05'0 0.0
2015-Jan-30 18:26N 29°54' E 122°05'0 0.0
2015-Jan-30 17:29N 29°54' E 122°05'0 0.0
2015-Jan-30 16:26N 29°54' E 122°05'0 0.0
2015-Jan-30 15:29N 29°54' E 122°05'0 0.0
2015-Jan-30 14:32N 29°54' E 122°05'0 0.0
2015-Jan-30 13:32N 29°54' E 122°05'0 0.0
2015-Jan-30 12:20N 29°54' E 122°05'0 0.0
2015-Jan-30 11:32N 29°54' E 122°05'0 0.0
2015-Jan-30 10:32N 29°54' E 122°05'0 0.0
2015-Jan-30 09:32N 29°54' E 122°05'0 0.0
2015-Jan-30 08:32N 29°54' E 122°05'0 0.0
2015-Jan-30 07:32N 29°54' E 122°05'0 0.0
2015-Jan-30 06:32N 29°54' E 122°05'0 0.0
2015-Jan-30 05:29N 29°54' E 122°05'0 0.0
2015-Jan-30 04:26N 29°54' E 122°05'0 0.0
2015-Jan-30 02:29N 29°54' E 122°05'0 0.0
2015-Jan-30 01:23N 29°54' E 122°05'0 0.0
2015-Jan-30 00:32N 29°54' E 122°05'0 0.0
2015-Jan-29 23:29N 29°54' E 122°05'0 0.0
2015-Jan-29 21:32N 29°54' E 122°05'0 0.0
2015-Jan-29 20:05N 29°54' E 122°05'0 0.0
2015-Jan-29 19:29N 29°54' E 122°05'0 0.0
2015-Jan-29 18:20N 29°54' E 122°05'0 0.0
2015-Jan-29 17:05N 29°54' E 122°05'0 0.0
2015-Jan-29 16:32N 29°54' E 122°05'0 0.0
2015-Jan-29 14:26N 29°54' E 122°05'0 0.0
2015-Jan-29 12:32N 29°54' E 122°05'0 0.0
2015-Jan-29 11:05N 29°54' E 122°05'0 0.0
2015-Jan-29 09:32N 29°54' E 122°05'0 0.1
2015-Jan-29 08:33N 29°54' E 122°05'0 0.0
2015-Jan-29 07:33N 29°54' E 122°05'0 0.4
2015-Jan-29 06:33N 29°54' E 122°05'5 5.4
2015-Jan-29 05:33N 29°54' E 122°11'9 8.8
2015-Jan-29 04:33N 29°47' E 122°16'8 7.6
2015-Jan-29 03:33N 29°43' E 122°24'7 6.6
2015-Jan-29 02:33N 29°41' E 122°31'6 5.6
2015-Jan-29 01:33N 29°42' E 122°38'3 0.6
2015-Jan-28 21:17N 29°45' E 122°38'0 0.1
2015-Jan-28 17:23N 29°45' E 122°38'0 0.1
2015-Jan-28 16:23N 29°45' E 122°38'0 0.0
2015-Jan-28 13:23N 29°45' E 122°38'0 0.0
2015-Jan-28 12:17N 29°45' E 122°38'0 0.0
2015-Jan-28 06:17N 29°45' E 122°38'0 0.0
2015-Jan-28 02:17N 29°45' E 122°38'0 0.0
2015-Jan-27 23:29N 29°45' E 122°38'0 0.0
2015-Jan-27 22:29N 29°45' E 122°38'0 0.0
2015-Jan-27 18:26N 29°45' E 122°38'5 5.1
2015-Jan-27 17:26N 29°44' E 122°44'  
2015-Jan-25 12:00N 22°00' E 121°18'228 9.5 080 / 241018.0 5.4 3.023.023.024.0
2015-Jan-24 12:00N 18°48' E 119°06'67 8.4 050 / 241014.0 5.4 3.024.021.024.0
2015-Jan-24 04:00N 17°54' E 118°24'155 9.7 040 / 191015.010.8 2.025.022.023.0
2015-Jan-23 12:00N 15°54' E 116°42'76 9.5 050 / 241014.0 5.4 3.024.021.024.0
2015-Jan-23 04:00N 14°54' E 115°54'155 9.7 040 / 241014.0 5.4 3.025.019.025.0
2015-Jan-22 12:00N 13°00' E 114°06'   050 / 241014.0 5.4 3.024.020.024.0
Track history (hours):
 
Tides and Currents Weather Stations Pressure Air Temp Water Temp Dewpoint Dewpoint Depression Visibility Wind Speed Wind Dir Waves Ship Positions

Mineral Faith

Last reported at 2015-Jan-30 21:32 UTC. Time now 2015-Jan-30 21:39 UTC.
Position N 29°54' E 122°05'.

Length 292 m; draft 18.2 m.

Type: Cargo ship. MMSI: 477947500.

Date/timePositionNaut miles runAvg speedWind from/ knotsBaromVisibWave heightAir tempDewpointWater temp
2015-Jan-30 21:32N 29°54' E 122°05'0 0.0
2015-Jan-30 20:32N 29°54' E 122°05'0 0.0
2015-Jan-30 19:32N 29°54' E 122°05'0 0.0
2015-Jan-30 18:26N 29°54' E 122°05'0 0.0
2015-Jan-30 17:29N 29°54' E 122°05'0 0.0
2015-Jan-30 16:26N 29°54' E 122°05'0 0.0
2015-Jan-30 15:29N 29°54' E 122°05'0 0.0
2015-Jan-30 14:32N 29°54' E 122°05'0 0.0
2015-Jan-30 13:32N 29°54' E 122°05'0 0.0
2015-Jan-30 12:20N 29°54' E 122°05'0 0.0
2015-Jan-30 11:32N 29°54' E 122°05'0 0.0
2015-Jan-30 10:32N 29°54' E 122°05'0 0.0
2015-Jan-30 09:32N 29°54' E 122°05'0 0.0
2015-Jan-30 08:32N 29°54' E 122°05'0 0.0
2015-Jan-30 07:32N 29°54' E 122°05'0 0.0
2015-Jan-30 06:32N 29°54' E 122°05'0 0.0
2015-Jan-30 05:29N 29°54' E 122°05'0 0.0
2015-Jan-30 04:26N 29°54' E 122°05'0 0.0
2015-Jan-30 02:29N 29°54' E 122°05'0 0.0
2015-Jan-30 01:23N 29°54' E 122°05'0 0.0
2015-Jan-30 00:32N 29°54' E 122°05'0 0.0
2015-Jan-29 23:29N 29°54' E 122°05'0 0.0
2015-Jan-29 21:32N 29°54' E 122°05'0 0.0
2015-Jan-29 20:05N 29°54' E 122°05'0 0.0
2015-Jan-29 19:29N 29°54' E 122°05'0 0.0
2015-Jan-29 18:20N 29°54' E 122°05'0 0.0
2015-Jan-29 17:05N 29°54' E 122°05'0 0.0
2015-Jan-29 16:32N 29°54' E 122°05'0 0.0
2015-Jan-29 14:26N 29°54' E 122°05'0 0.0
2015-Jan-29 12:32N 29°54' E 122°05'0 0.0
2015-Jan-29 11:05N 29°54' E 122°05'0 0.0
2015-Jan-29 09:32N 29°54' E 122°05'0 0.1
2015-Jan-29 08:33N 29°54' E 122°05'0 0.0
2015-Jan-29 07:33N 29°54' E 122°05'0 0.4
2015-Jan-29 06:33N 29°54' E 122°05'5 5.4
2015-Jan-29 05:33N 29°54' E 122°11'9 8.8
2015-Jan-29 04:33N 29°47' E 122°16'8 7.6
2015-Jan-29 03:33N 29°43' E 122°24'7 6.6
2015-Jan-29 02:33N 29°41' E 122°31'6 5.6
2015-Jan-29 01:33N 29°42' E 122°38'3 0.6
2015-Jan-28 21:17N 29°45' E 122°38'0 0.1
2015-Jan-28 17:23N 29°45' E 122°38'0 0.1
2015-Jan-28 16:23N 29°45' E 122°38'0 0.0
2015-Jan-28 13:23N 29°45' E 122°38'0 0.0
2015-Jan-28 12:17N 29°45' E 122°38'0 0.0
2015-Jan-28 06:17N 29°45' E 122°38'0 0.0
2015-Jan-28 02:17N 29°45' E 122°38'0 0.0
2015-Jan-27 23:29N 29°45' E 122°38'0 0.0
2015-Jan-27 22:29N 29°45' E 122°38'0 0.0
2015-Jan-27 18:26N 29°45' E 122°38'5 5.1
2015-Jan-27 17:26N 29°44' E 122°44'  
2015-Jan-25 12:00N 22°00' E 121°18'228 9.5 080 / 241018.0 5.4 3.023.023.024.0
2015-Jan-24 12:00N 18°48' E 119°06'67 8.4 050 / 241014.0 5.4 3.024.021.024.0
2015-Jan-24 04:00N 17°54' E 118°24'155 9.7 040 / 191015.010.8 2.025.022.023.0
2015-Jan-23 12:00N 15°54' E 116°42'76 9.5 050 / 241014.0 5.4 3.024.021.024.0
2015-Jan-23 04:00N 14°54' E 115°54'155 9.7 040 / 241014.0 5.4 3.025.019.025.0
2015-Jan-22 12:00N 13°00' E 114°06'   050 / 241014.0 5.4 3.024.020.024.0

Dump ship's entire track history